createdAt,value
2022-08-03T00:02:19.042Z,93.38
2022-08-03T00:04:46.681Z,93.50
2022-08-03T00:07:13.966Z,93.66
2022-08-03T00:09:41.265Z,94.41
2022-08-03T00:12:09.008Z,94.21
2022-08-03T00:14:36.484Z,94.11
2022-08-03T00:17:03.793Z,94.51
2022-08-03T00:19:31.090Z,94.20
2022-08-03T00:21:58.314Z,94.94
2022-08-03T00:24:25.622Z,95.48
2022-08-03T00:26:52.894Z,94.63
2022-08-03T00:29:20.112Z,95.38
2022-08-03T00:31:52.566Z,95.22
2022-08-03T00:34:30.955Z,95.14
2022-08-03T00:37:07.629Z,95.57
2022-08-03T00:39:34.834Z,95.72
2022-08-03T00:42:05.906Z,96.17
2022-08-03T00:44:41.018Z,96.86
2022-08-03T00:47:10.738Z,96.83
2022-08-03T00:49:41.139Z,97.20
2022-08-03T00:52:10.906Z,97.20
2022-08-03T00:54:39.954Z,97.20
2022-08-03T00:57:08.278Z,97.42
2022-08-03T00:59:35.661Z,97.36
2022-08-03T01:02:02.950Z,98.16
2022-08-03T01:04:30.204Z,98.41
2022-08-03T01:07:54.736Z,99.12
2022-08-03T01:10:42.913Z,98.82
2022-08-03T01:14:01.421Z,99.41
2022-08-03T01:16:42.455Z,99.83
2022-08-03T01:19:54.574Z,100.00
2022-08-03T01:23:03.525Z,100.00
2022-08-03T01:25:58.942Z,100.00
2022-08-03T01:29:18.700Z,100.00
2022-08-03T01:32:59.152Z,100.00
2022-08-03T01:35:09.002Z,100.00
2022-08-03T01:37:51.972Z,100.00
2022-08-03T01:40:24.622Z,100.00
2022-08-03T01:42:57.575Z,100.00
2022-08-03T01:45:26.650Z,100.00
2022-08-03T01:47:55.945Z,100.00
2022-08-03T01:50:29.286Z,100.00
2022-08-03T01:52:59.067Z,100.00
2022-08-03T01:55:29.601Z,100.00
2022-08-03T01:58:04.813Z,100.00
2022-08-03T02:00:37.708Z,100.00
2022-08-03T02:03:08.633Z,100.00
2022-08-03T02:05:39.296Z,100.00
2022-08-03T02:08:13.975Z,100.00
2022-08-03T02:10:46.184Z,100.00
2022-08-03T02:13:16.334Z,100.00
2022-08-03T02:15:44.846Z,100.00
2022-08-03T02:18:13.940Z,100.00
2022-08-03T02:20:44.431Z,100.00
2022-08-03T02:23:12.146Z,100.00
2022-08-03T02:25:47.067Z,100.00
2022-08-03T02:28:22.358Z,100.00
2022-08-03T02:30:56.767Z,100.00
2022-08-03T02:33:47.292Z,100.00
2022-08-03T02:36:19.962Z,100.00
2022-08-03T02:38:54.940Z,100.00
2022-08-03T02:41:32.153Z,100.00
2022-08-03T02:44:10.862Z,100.00
2022-08-03T02:46:49.427Z,100.00
2022-08-03T02:49:35.394Z,100.00
2022-08-03T02:52:15.480Z,100.00
2022-08-03T02:54:47.712Z,100.00
2022-08-03T02:57:18.624Z,100.00
2022-08-03T02:59:47.682Z,100.00
2022-08-03T03:02:17.841Z,100.00
2022-08-03T03:05:50.808Z,100.00
2022-08-03T03:07:46.897Z,100.00
2022-08-03T03:10:25.844Z,100.00
2022-08-03T03:12:57.345Z,100.00
2022-08-03T03:15:29.105Z,100.00
2022-08-03T03:17:58.114Z,100.00
2022-08-03T03:20:30.124Z,100.00
2022-08-03T03:23:01.558Z,100.00
2022-08-03T03:25:33.213Z,100.00
2022-08-03T03:28:02.899Z,100.00
2022-08-03T03:30:30.352Z,100.00
2022-08-03T03:32:59.277Z,100.00
2022-08-03T03:35:28.204Z,100.00
2022-08-03T03:37:55.637Z,100.00
2022-08-03T03:40:23.674Z,100.00
2022-08-03T03:42:51.220Z,100.00
2022-08-03T03:45:20.680Z,100.00
2022-08-03T03:47:48.288Z,100.00
2022-08-03T03:50:18.438Z,100.00
2022-08-03T03:52:45.803Z,100.00
2022-08-03T03:55:18.337Z,100.00
2022-08-03T03:57:46.462Z,100.00
2022-08-03T04:00:17.854Z,100.00
2022-08-03T04:02:46.518Z,100.00
2022-08-03T04:05:34.118Z,100.00
2022-08-03T04:08:25.608Z,100.00
2022-08-03T04:11:19.115Z,100.00
2022-08-03T04:13:57.546Z,100.00
2022-08-03T04:16:35.287Z,100.00
2022-08-03T04:19:23.254Z,100.00
2022-08-03T04:21:57.724Z,100.00
2022-08-03T04:24:35.371Z,100.00
2022-08-03T04:27:09.562Z,100.00
2022-08-03T04:29:48.565Z,100.00
2022-08-03T04:32:18.183Z,100.00
2022-08-03T04:34:46.912Z,100.00
2022-08-03T04:37:38.531Z,100.00
2022-08-03T04:40:22.857Z,100.00
2022-08-03T04:42:55.781Z,100.00
2022-08-03T04:45:24.843Z,100.00
2022-08-03T04:47:53.314Z,100.00
2022-08-03T04:50:22.114Z,100.00
2022-08-03T04:53:07.218Z,100.00
2022-08-03T04:55:36.542Z,100.00
2022-08-03T04:58:06.412Z,100.00
2022-08-03T05:00:33.695Z,100.00
2022-08-03T05:03:00.894Z,100.00
2022-08-03T05:05:49.643Z,100.00
2022-08-03T05:08:16.461Z,100.00
2022-08-03T05:10:48.558Z,100.00
2022-08-03T05:13:15.935Z,100.00
2022-08-03T05:15:43.406Z,100.00
2022-08-03T05:18:14.105Z,100.00
2022-08-03T05:20:41.886Z,100.00
2022-08-03T05:23:09.057Z,100.00
2022-08-03T05:25:36.412Z,100.00
2022-08-03T05:28:04.448Z,100.00
2022-08-03T05:30:34.126Z,100.00
2022-08-03T05:33:03.811Z,100.00
2022-08-03T05:35:57.788Z,100.00
2022-08-03T05:38:24.092Z,100.00
2022-08-03T05:41:21.376Z,100.00
2022-08-03T05:43:45.585Z,100.00
2022-08-03T05:46:13.335Z,100.00
2022-08-03T05:48:42.851Z,100.00
2022-08-03T05:51:11.768Z,100.00
2022-08-03T05:53:42.306Z,100.00
2022-08-03T05:56:14.261Z,100.00
2022-08-03T05:58:48.070Z,100.00
2022-08-03T06:01:17.292Z,100.00
2022-08-03T06:03:46.368Z,100.00
2022-08-03T06:06:14.164Z,100.00
2022-08-03T06:08:43.785Z,100.00
2022-08-03T06:11:11.564Z,100.00
2022-08-03T06:13:39.397Z,100.00
2022-08-03T06:16:06.894Z,100.00
2022-08-03T06:18:35.110Z,100.00
2022-08-03T06:21:13.993Z,100.00
2022-08-03T06:23:54.642Z,100.00
2022-08-03T06:26:26.556Z,100.00
2022-08-03T06:28:55.022Z,100.00
2022-08-03T06:31:33.107Z,100.00
2022-08-03T06:34:33.639Z,100.00
2022-08-03T06:36:58.476Z,100.00
2022-08-03T06:39:29.559Z,100.00
2022-08-03T06:41:56.797Z,100.00
2022-08-03T06:44:24.109Z,100.00
2022-08-03T06:46:51.831Z,100.00
2022-08-03T06:49:19.684Z,100.00
2022-08-03T06:52:03.491Z,100.00
2022-08-03T06:54:33.851Z,100.00
2022-08-03T06:57:01.302Z,98.83
2022-08-03T07:00:08.292Z,98.53
2022-08-03T07:02:19.461Z,97.39
2022-08-03T07:04:49.070Z,98.06
2022-08-03T07:07:17.391Z,97.26
2022-08-03T07:09:54.953Z,96.25
2022-08-03T07:14:55.504Z,95.97
2022-08-03T07:17:25.795Z,95.70
2022-08-03T07:19:53.010Z,94.42
2022-08-03T07:22:20.248Z,93.25
2022-08-03T07:24:47.798Z,93.00
2022-08-03T07:27:16.949Z,92.68
2022-08-03T07:29:44.286Z,92.61
2022-08-03T07:32:11.459Z,90.38
2022-08-03T07:34:38.726Z,89.30
2022-08-03T07:37:06.021Z,89.88
2022-08-03T07:39:33.414Z,89.98
2022-08-03T07:42:00.651Z,88.88
2022-08-03T07:44:27.861Z,88.62
2022-08-03T07:46:55.183Z,87.33
2022-08-03T07:49:24.213Z,86.88
2022-08-03T07:52:11.481Z,86.31
2022-08-03T07:54:38.844Z,85.86
2022-08-03T07:57:06.311Z,85.15
2022-08-03T08:00:01.652Z,84.79
2022-08-03T08:02:22.467Z,84.88
2022-08-03T08:04:50.568Z,82.86
2022-08-03T08:07:18.186Z,81.88
2022-08-03T08:09:47.887Z,82.16
2022-08-03T08:12:16.107Z,82.29
2022-08-03T08:14:45.884Z,81.41
2022-08-03T08:17:14.499Z,81.08
2022-08-03T08:19:51.331Z,78.95
2022-08-03T08:22:28.735Z,78.75
2022-08-03T08:24:59.767Z,77.06
2022-08-03T08:27:28.786Z,75.46
2022-08-03T08:30:21.288Z,74.99
2022-08-03T08:32:50.383Z,74.27
2022-08-03T08:35:19.591Z,74.09
2022-08-03T08:37:50.766Z,73.57
2022-08-03T08:40:22.572Z,72.28
2022-08-03T08:42:58.780Z,71.25
2022-08-03T08:45:26.817Z,69.96
2022-08-03T08:48:01.799Z,70.52
2022-08-03T08:50:31.038Z,66.06
2022-08-03T08:53:03.730Z,62.77
2022-08-03T08:55:58.041Z,61.49
2022-08-03T08:58:22.766Z,57.96
2022-08-03T09:00:51.577Z,57.75
2022-08-03T09:03:22.742Z,56.54
2022-08-03T09:06:02.405Z,54.18
2022-08-03T09:08:32.760Z,53.75
2022-08-03T09:11:00.653Z,53.07
2022-08-03T09:13:29.083Z,51.63
2022-08-03T09:16:21.265Z,50.39
2022-08-03T09:18:54.531Z,50.60
2022-08-03T09:21:33.572Z,48.76
2022-08-03T09:24:07.063Z,48.89
2022-08-03T09:26:38.262Z,47.94
2022-08-03T09:29:14.813Z,47.72
2022-08-03T09:31:46.982Z,47.62
2022-08-03T09:34:18.217Z,46.78
2022-08-03T09:36:48.897Z,45.50
2022-08-03T09:39:41.421Z,44.90
2022-08-03T09:42:18.725Z,44.70
2022-08-03T09:44:52.268Z,43.68
2022-08-03T09:47:44.757Z,43.53
2022-08-03T09:50:12.993Z,43.43
2022-08-03T09:52:51.979Z,44.02
2022-08-03T09:56:30.971Z,43.90
2022-08-03T09:58:11.327Z,42.97
2022-08-03T10:01:04.022Z,41.78
2022-08-03T10:04:03.244Z,41.74
2022-08-03T10:06:29.012Z,40.40
2022-08-03T10:09:16.870Z,40.68
2022-08-03T10:11:46.945Z,40.37
2022-08-03T10:14:19.180Z,39.47
2022-08-03T10:16:49.026Z,40.16
2022-08-03T10:19:17.400Z,39.35
2022-08-03T10:21:56.289Z,38.82
2022-08-03T10:24:30.922Z,37.82
2022-08-03T10:27:11.445Z,38.58
2022-08-03T10:29:45.692Z,38.75
2022-08-03T10:32:42.155Z,36.90
2022-08-03T10:35:20.096Z,37.90
2022-08-03T10:38:07.277Z,38.44
2022-08-03T10:40:48.577Z,37.51
2022-08-03T10:43:37.069Z,37.30
2022-08-03T10:46:07.993Z,36.91
2022-08-03T10:48:37.429Z,37.07
2022-08-03T10:51:06.769Z,36.58
2022-08-03T10:53:54.235Z,35.63
2022-08-03T10:57:14.676Z,35.62
2022-08-03T10:59:51.012Z,35.12
2022-08-03T11:02:18.667Z,35.18
2022-08-03T11:04:45.957Z,34.16
2022-08-03T11:07:23.506Z,34.28
2022-08-03T11:09:56.657Z,34.27
2022-08-03T11:12:33.862Z,33.49
2022-08-03T11:15:08.773Z,33.49
2022-08-03T11:17:46.421Z,33.61
2022-08-03T11:20:51.366Z,33.32
2022-08-03T11:24:02.834Z,32.98
2022-08-03T11:26:34.178Z,33.78
2022-08-03T11:29:31.670Z,33.96
2022-08-03T11:31:59.178Z,33.88
2022-08-03T11:34:26.740Z,33.32
2022-08-03T11:38:03.220Z,32.81
2022-08-03T11:40:52.950Z,33.09
2022-08-03T11:43:30.802Z,33.16
2022-08-03T11:46:28.208Z,32.94
2022-08-03T11:49:10.832Z,32.32
2022-08-03T11:51:40.603Z,33.41
2022-08-03T11:54:08.400Z,33.50
2022-08-03T11:56:50.591Z,33.89
2022-08-03T11:59:21.887Z,34.55
2022-08-03T12:01:50.812Z,35.62
2022-08-03T12:04:19.304Z,36.64
2022-08-03T12:07:02.263Z,35.92
2022-08-03T12:09:29.579Z,37.15
2022-08-03T12:12:00.345Z,37.18
2022-08-03T12:14:49.684Z,37.73
2022-08-03T12:17:19.657Z,37.95
2022-08-03T12:19:47.444Z,38.05
2022-08-03T12:22:16.766Z,37.17
2022-08-03T12:24:48.020Z,37.74
2022-08-03T12:27:29.731Z,38.15
2022-08-03T12:30:01.561Z,37.69
2022-08-03T12:32:30.668Z,37.83
2022-08-03T12:35:01.650Z,38.23
2022-08-03T12:37:29.935Z,38.01
2022-08-03T12:40:07.791Z,38.02
2022-08-03T12:42:40.764Z,37.77
2022-08-03T12:45:31.932Z,38.66
2022-08-03T12:48:02.383Z,38.02
2022-08-03T12:50:32.097Z,38.03
2022-08-03T12:53:02.563Z,38.59
2022-08-03T12:55:57.229Z,38.12
2022-08-03T12:58:34.933Z,38.67
2022-08-03T13:01:09.975Z,38.37
2022-08-03T13:03:50.349Z,38.98
2022-08-03T13:06:29.329Z,38.57
2022-08-03T13:09:07.858Z,38.06
2022-08-03T13:11:57.660Z,38.64
2022-08-03T13:14:23.664Z,38.89
2022-08-03T13:16:52.184Z,38.37
2022-08-03T13:19:19.445Z,38.37
2022-08-03T13:21:53.578Z,38.26
2022-08-03T13:24:33.643Z,38.06
2022-08-03T13:28:02.086Z,38.01
2022-08-03T13:29:51.041Z,38.50
2022-08-03T13:32:19.363Z,37.86
2022-08-03T13:34:47.226Z,37.88
2022-08-03T13:37:15.060Z,36.83
2022-08-03T13:39:59.867Z,36.62
2022-08-03T13:42:32.564Z,35.57
2022-08-03T13:45:02.369Z,34.53
2022-08-03T13:47:29.790Z,33.76
2022-08-03T13:50:01.013Z,33.93
2022-08-03T13:52:36.591Z,33.20
2022-08-03T13:55:06.915Z,33.42
2022-08-03T13:58:06.682Z,32.57
2022-08-03T14:00:27.059Z,32.62
2022-08-03T14:03:05.057Z,33.25
2022-08-03T14:05:34.039Z,32.92
2022-08-03T14:08:04.261Z,32.04
2022-08-03T14:10:43.357Z,31.64
2022-08-03T14:13:17.588Z,30.57
2022-08-03T14:15:49.916Z,30.16
2022-08-03T14:18:27.665Z,29.79
2022-08-03T14:21:03.485Z,30.15
2022-08-03T14:23:34.887Z,29.71
2022-08-03T14:26:02.124Z,29.87
2022-08-03T14:28:29.326Z,30.18
2022-08-03T14:30:56.961Z,29.58
2022-08-03T14:33:24.746Z,29.75
2022-08-03T14:35:53.108Z,29.35
2022-08-03T14:38:21.368Z,28.74
2022-08-03T14:40:49.296Z,28.76
2022-08-03T14:43:23.231Z,28.85
2022-08-03T14:45:53.450Z,28.82
2022-08-03T14:50:32.312Z,28.55
2022-08-03T14:51:10.490Z,28.71
2022-08-03T14:53:37.827Z,28.58
2022-08-03T14:56:10.124Z,27.97
2022-08-03T14:58:38.665Z,28.07
2022-08-03T15:02:06.334Z,27.67
2022-08-03T15:03:54.679Z,28.14
2022-08-03T15:06:21.942Z,28.09
2022-08-03T15:09:13.634Z,27.81
2022-08-03T15:11:37.306Z,26.96
2022-08-03T15:14:08.948Z,26.98
2022-08-03T15:16:37.596Z,27.20
2022-08-03T15:20:03.796Z,27.26
2022-08-03T15:21:53.553Z,27.07
2022-08-03T15:24:20.907Z,26.62
2022-08-03T15:26:48.105Z,25.54
2022-08-03T15:30:05.427Z,25.67
2022-08-03T15:32:05.007Z,25.74
2022-08-03T15:34:36.028Z,25.47
2022-08-03T15:37:05.198Z,25.60
2022-08-03T15:39:59.105Z,25.36
2022-08-03T15:42:31.207Z,25.42
2022-08-03T15:44:58.550Z,25.53
2022-08-03T15:47:26.858Z,25.63
2022-08-03T15:49:54.143Z,25.74
2022-08-03T15:52:21.378Z,25.11
2022-08-03T15:54:48.642Z,25.80
2022-08-03T15:57:15.847Z,25.92
2022-08-03T15:59:43.052Z,25.84
2022-08-03T16:02:10.669Z,26.08
2022-08-03T16:04:37.927Z,26.87
2022-08-03T16:07:05.490Z,27.23
2022-08-03T16:09:43.291Z,27.66
2022-08-03T16:12:16.020Z,28.53
2022-08-03T16:14:52.932Z,29.16
2022-08-03T16:17:22.563Z,29.73
2022-08-03T16:19:53.431Z,30.47
2022-08-03T16:22:24.199Z,31.01
2022-08-03T16:24:53.793Z,31.68
2022-08-03T16:27:58.098Z,31.92
2022-08-03T16:30:18.593Z,32.35
2022-08-03T16:32:46.282Z,32.79
2022-08-03T16:35:19.870Z,33.57
2022-08-03T16:37:56.286Z,33.00
2022-08-03T16:40:25.274Z,33.51
2022-08-03T16:42:52.753Z,33.88
2022-08-03T16:45:20.132Z,34.24
2022-08-03T16:47:47.570Z,34.76
2022-08-03T16:50:28.636Z,34.82
2022-08-03T16:52:56.308Z,34.64
2022-08-03T16:55:48.582Z,35.31
2022-08-03T16:58:12.493Z,35.39
2022-08-03T17:00:41.657Z,35.31
2022-08-03T17:03:19.014Z,35.81
2022-08-03T17:05:52.266Z,35.91
2022-08-03T17:08:26.514Z,35.68
2022-08-03T17:10:56.018Z,35.73
2022-08-03T17:13:38.878Z,36.18
2022-08-03T17:16:12.026Z,36.05
2022-08-03T17:19:03.849Z,36.46
2022-08-03T17:21:39.313Z,36.61
2022-08-03T17:24:33.763Z,36.83
2022-08-03T17:27:18.634Z,36.95
2022-08-03T17:30:07.781Z,36.60
2022-08-03T17:32:42.293Z,36.80
2022-08-03T17:35:11.114Z,36.89
2022-08-03T17:37:57.573Z,37.08
2022-08-03T17:40:26.003Z,36.46
2022-08-03T17:42:54.291Z,36.59
2022-08-03T17:45:21.662Z,37.34
2022-08-03T17:47:57.550Z,36.55
2022-08-03T17:50:46.501Z,37.05
2022-08-03T17:53:24.530Z,36.88
2022-08-03T17:56:07.838Z,37.71
2022-08-03T17:59:15.588Z,37.74
2022-08-03T18:02:35.352Z,37.25
2022-08-03T18:05:16.798Z,38.08
2022-08-03T18:08:02.680Z,38.05
2022-08-03T18:10:36.405Z,37.80
2022-08-03T18:13:58.441Z,38.36
2022-08-03T18:16:38.314Z,39.16
2022-08-03T18:19:09.238Z,40.00
2022-08-03T18:22:03.570Z,41.42
2022-08-03T18:24:27.311Z,42.35
2022-08-03T18:26:59.535Z,42.78
2022-08-03T18:29:29.976Z,43.56
2022-08-03T18:32:02.749Z,43.96
2022-08-03T18:34:34.494Z,44.75
2022-08-03T18:37:07.710Z,44.70
2022-08-03T18:39:50.262Z,45.22
2022-08-03T18:42:25.813Z,45.88
2022-08-03T18:44:58.300Z,45.81
2022-08-03T18:47:50.703Z,46.60
2022-08-03T18:50:46.515Z,47.16
2022-08-03T18:54:04.059Z,47.10
2022-08-03T18:56:54.848Z,48.39
2022-08-03T19:00:12.219Z,49.22
2022-08-03T19:02:55.881Z,49.36
2022-08-03T19:05:57.735Z,49.80
2022-08-03T19:08:28.616Z,50.50
2022-08-03T19:11:06.080Z,51.12
2022-08-03T19:13:50.424Z,51.25
2022-08-03T19:16:42.128Z,51.70
2022-08-03T19:19:14.452Z,51.90
2022-08-03T19:21:44.338Z,52.32
2022-08-03T19:24:14.085Z,53.00
2022-08-03T19:26:43.203Z,53.94
2022-08-03T19:29:18.579Z,53.71
2022-08-03T19:31:59.346Z,53.77
2022-08-03T19:34:30.614Z,54.47
2022-08-03T19:36:59.447Z,54.89
2022-08-03T19:39:27.468Z,55.04
2022-08-03T19:42:09.184Z,55.81
2022-08-03T19:44:59.238Z,56.50
2022-08-03T19:47:34.681Z,56.89
2022-08-03T19:50:13.985Z,57.14
2022-08-03T19:52:47.724Z,57.93
2022-08-03T19:55:18.491Z,58.13
2022-08-03T19:57:49.734Z,58.38
2022-08-03T20:00:26.394Z,58.96
2022-08-03T20:02:54.294Z,59.30
2022-08-03T20:05:21.608Z,59.08
2022-08-03T20:07:50.777Z,59.90
2022-08-03T20:10:20.735Z,59.29
2022-08-03T20:12:49.680Z,59.68
2022-08-03T20:15:22.541Z,59.48
2022-08-03T20:17:59.688Z,60.17
2022-08-03T20:20:35.668Z,59.65
2022-08-03T20:23:18.134Z,60.11
2022-08-03T20:26:00.691Z,60.94
2022-08-03T20:28:50.599Z,60.16
2022-08-03T20:31:22.757Z,61.15
2022-08-03T20:33:54.064Z,62.09
2022-08-03T20:36:22.739Z,61.55
2022-08-03T20:38:57.633Z,62.76
2022-08-03T20:41:25.699Z,62.33
2022-08-03T20:43:53.283Z,61.83
2022-08-03T20:46:31.093Z,63.13
2022-08-03T20:49:05.985Z,63.10
2022-08-03T20:51:49.820Z,63.83
2022-08-03T20:54:30.919Z,63.36
2022-08-03T20:57:04.377Z,64.08
2022-08-03T20:59:50.501Z,64.22
2022-08-03T21:02:30.096Z,64.42
2022-08-03T21:05:03.416Z,64.37
2022-08-03T21:08:06.402Z,64.18
2022-08-03T21:10:39.681Z,64.50
2022-08-03T21:13:30.001Z,64.06
2022-08-03T21:16:06.410Z,64.77
2022-08-03T21:18:53.409Z,65.30
2022-08-03T21:21:23.605Z,65.07
2022-08-03T21:23:54.767Z,64.75
2022-08-03T21:26:26.833Z,65.58
2022-08-03T21:28:56.774Z,65.56
2022-08-03T21:31:26.780Z,65.80
2022-08-03T21:33:57.900Z,66.09
2022-08-03T21:36:32.846Z,66.45
2022-08-03T21:39:02.562Z,66.57
2022-08-03T21:41:32.987Z,66.71
2022-08-03T21:44:02.035Z,66.54
2022-08-03T21:46:40.027Z,67.01
2022-08-03T21:50:05.893Z,67.06
2022-08-03T21:52:07.168Z,66.82
2022-08-03T21:54:43.330Z,67.40
2022-08-03T21:57:31.068Z,67.72
2022-08-03T22:00:14.598Z,67.22
2022-08-03T22:02:53.161Z,67.34
2022-08-03T22:05:42.549Z,67.12
2022-08-03T22:08:13.858Z,67.20
2022-08-03T22:10:45.859Z,67.48
2022-08-03T22:13:42.887Z,67.80
2022-08-03T22:16:05.940Z,67.52
2022-08-03T22:18:38.088Z,67.77
2022-08-03T22:21:09.133Z,68.15
2022-08-03T22:23:47.995Z,67.91
2022-08-03T22:26:34.844Z,68.03
2022-08-03T22:29:08.323Z,68.21
2022-08-03T22:31:58.363Z,68.40
2022-08-03T22:34:27.446Z,68.87
2022-08-03T22:37:02.094Z,69.16
2022-08-03T22:39:30.448Z,68.91
2022-08-03T22:42:01.610Z,69.60
2022-08-03T22:44:29.586Z,69.25
2022-08-03T22:46:58.014Z,69.85
2022-08-03T22:49:28.133Z,69.54
2022-08-03T22:51:56.420Z,69.56
2022-08-03T22:54:25.626Z,70.11
2022-08-03T22:56:53.066Z,69.86
2022-08-03T22:59:39.809Z,69.85
2022-08-03T23:02:21.005Z,70.26
2022-08-03T23:05:01.626Z,70.25
2022-08-03T23:07:36.007Z,70.06
2022-08-03T23:10:11.028Z,70.31
2022-08-03T23:12:42.158Z,69.98
2022-08-03T23:15:13.391Z,70.23
2022-08-03T23:17:58.266Z,70.33
2022-08-03T23:20:28.882Z,70.68
2022-08-03T23:22:57.790Z,70.88
2022-08-03T23:25:26.584Z,71.24
2022-08-03T23:28:04.621Z,71.11
2022-08-03T23:30:37.655Z,71.09
2022-08-03T23:33:06.650Z,71.13
2022-08-03T23:36:28.420Z,71.66
2022-08-03T23:38:43.515Z,71.55
2022-08-03T23:41:13.449Z,71.79
2022-08-03T23:43:51.799Z,72.31
2022-08-03T23:46:27.348Z,72.15
2022-08-03T23:48:56.643Z,72.03
2022-08-03T23:51:41.743Z,72.09
2022-08-03T23:54:40.391Z,72.77
2022-08-03T23:57:44.115Z,72.95
